sensor_id;sensor_type;location;lat;lon;timestamp;P1;durP1;ratioP1;P2;durP2;ratioP2
53062;SDS011;40529;52.172;10.548;2022-07-03T00:00:42;2.75;;;1.48;;
53062;SDS011;40529;52.172;10.548;2022-07-03T00:03:08;1.70;;;1.40;;
53062;SDS011;40529;52.172;10.548;2022-07-03T00:05:34;3.00;;;1.40;;
53062;SDS011;40529;52.172;10.548;2022-07-03T00:08:00;3.95;;;1.60;;
53062;SDS011;40529;52.172;10.548;2022-07-03T00:10:26;2.58;;;1.50;;
53062;SDS011;40529;52.172;10.548;2022-07-03T00:12:52;2.85;;;1.63;;
53062;SDS011;40529;52.172;10.548;2022-07-03T00:15:18;1.65;;;1.55;;
53062;SDS011;40529;52.172;10.548;2022-07-03T00:17:44;3.88;;;1.60;;
53062;SDS011;40529;52.172;10.548;2022-07-03T00:20:10;2.75;;;1.80;;
53062;SDS011;40529;52.172;10.548;2022-07-03T00:22:37;3.95;;;1.60;;
53062;SDS011;40529;52.172;10.548;2022-07-03T00:25:07;3.38;;;1.60;;
53062;SDS011;40529;52.172;10.548;2022-07-03T00:27:36;3.45;;;1.77;;
53062;SDS011;40529;52.172;10.548;2022-07-03T00:30:04;3.55;;;1.88;;
53062;SDS011;40529;52.172;10.548;2022-07-03T00:32:30;2.85;;;1.50;;
53062;SDS011;40529;52.172;10.548;2022-07-03T00:34:56;1.77;;;1.58;;
53062;SDS011;40529;52.172;10.548;2022-07-03T00:37:23;2.03;;;1.60;;
53062;SDS011;40529;52.172;10.548;2022-07-03T00:39:50;2.58;;;1.63;;
53062;SDS011;40529;52.172;10.548;2022-07-03T00:42:16;3.13;;;1.80;;
53062;SDS011;40529;52.172;10.548;2022-07-03T00:44:46;4.13;;;1.60;;
53062;SDS011;40529;52.172;10.548;2022-07-03T00:47:14;1.98;;;1.67;;
53062;SDS011;40529;52.172;10.548;2022-07-03T00:49:41;4.15;;;1.80;;
53062;SDS011;40529;52.172;10.548;2022-07-03T00:52:09;1.80;;;1.50;;
53062;SDS011;40529;52.172;10.548;2022-07-03T00:54:37;2.78;;;1.80;;
53062;SDS011;40529;52.172;10.548;2022-07-03T00:57:04;3.58;;;1.88;;
53062;SDS011;40529;52.172;10.548;2022-07-03T00:59:31;2.90;;;1.48;;
53062;SDS011;40529;52.172;10.548;2022-07-03T01:02:03;3.42;;;1.52;;
53062;SDS011;40529;52.172;10.548;2022-07-03T01:04:45;2.10;;;1.40;;
53062;SDS011;40529;52.172;10.548;2022-07-03T01:10:04;4.35;;;1.30;;
53062;SDS011;40529;52.172;10.548;2022-07-03T01:12:38;4.75;;;1.48;;
53062;SDS011;40529;52.172;10.548;2022-07-03T01:17:34;2.63;;;1.60;;
53062;SDS011;40529;52.172;10.548;2022-07-03T01:20:00;3.92;;;1.70;;
53062;SDS011;40529;52.172;10.548;2022-07-03T01:27:43;3.05;;;2.00;;
53062;SDS011;40529;52.172;10.548;2022-07-03T01:30:13;3.58;;;2.20;;
53062;SDS011;40529;52.172;10.548;2022-07-03T01:32:43;2.28;;;2.03;;
53062;SDS011;40529;52.172;10.548;2022-07-03T01:35:11;3.83;;;2.30;;
53062;SDS011;40529;52.172;10.548;2022-07-03T01:37:38;3.10;;;2.40;;
53062;SDS011;40529;52.172;10.548;2022-07-03T01:40:05;2.90;;;2.55;;
53062;SDS011;40529;52.172;10.548;2022-07-03T01:42:32;2.60;;;2.30;;
53062;SDS011;40529;52.172;10.548;2022-07-03T01:44:59;2.10;;;1.90;;
53062;SDS011;40529;52.172;10.548;2022-07-03T01:47:25;2.13;;;1.88;;
53062;SDS011;40529;52.172;10.548;2022-07-03T01:49:52;2.72;;;1.90;;
53062;SDS011;40529;52.172;10.548;2022-07-03T01:52:20;2.25;;;2.05;;
53062;SDS011;40529;52.172;10.548;2022-07-03T01:54:46;2.13;;;1.92;;
53062;SDS011;40529;52.172;10.548;2022-07-03T01:57:13;3.58;;;1.80;;
53062;SDS011;40529;52.172;10.548;2022-07-03T01:59:39;3.25;;;2.05;;
53062;SDS011;40529;52.172;10.548;2022-07-03T02:02:22;4.38;;;1.92;;
53062;SDS011;40529;52.172;10.548;2022-07-03T02:07:20;3.17;;;2.30;;
53062;SDS011;40529;52.172;10.548;2022-07-03T02:09:52;2.83;;;2.30;;
53062;SDS011;40529;52.172;10.548;2022-07-03T02:12:23;3.70;;;2.08;;
53062;SDS011;40529;52.172;10.548;2022-07-03T02:14:53;2.53;;;2.30;;
53062;SDS011;40529;52.172;10.548;2022-07-03T02:17:21;4.72;;;2.13;;
53062;SDS011;40529;52.172;10.548;2022-07-03T02:19:55;5.35;;;2.38;;
53062;SDS011;40529;52.172;10.548;2022-07-03T02:22:26;2.42;;;2.20;;
53062;SDS011;40529;52.172;10.548;2022-07-03T02:24:53;3.00;;;2.33;;
53062;SDS011;40529;52.172;10.548;2022-07-03T02:27:22;6.75;;;2.63;;
53062;SDS011;40529;52.172;10.548;2022-07-03T02:32:19;3.00;;;2.20;;
53062;SDS011;40529;52.172;10.548;2022-07-03T02:34:47;2.90;;;2.60;;
53062;SDS011;40529;52.172;10.548;2022-07-03T02:37:15;3.42;;;2.30;;
53062;SDS011;40529;52.172;10.548;2022-07-03T02:39:44;3.75;;;2.67;;
53062;SDS011;40529;52.172;10.548;2022-07-03T02:42:14;4.85;;;2.97;;
53062;SDS011;40529;52.172;10.548;2022-07-03T02:44:45;4.03;;;2.90;;
53062;SDS011;40529;52.172;10.548;2022-07-03T02:47:13;3.92;;;2.88;;
53062;SDS011;40529;52.172;10.548;2022-07-03T02:52:30;2.53;;;2.17;;
53062;SDS011;40529;52.172;10.548;2022-07-03T02:55:07;2.78;;;2.42;;
53062;SDS011;40529;52.172;10.548;2022-07-03T02:57:38;2.38;;;2.10;;
53062;SDS011;40529;52.172;10.548;2022-07-03T03:00:05;2.53;;;2.33;;
53062;SDS011;40529;52.172;10.548;2022-07-03T03:05:09;2.25;;;2.03;;
53062;SDS011;40529;52.172;10.548;2022-07-03T03:08:01;2.42;;;2.20;;
53062;SDS011;40529;52.172;10.548;2022-07-03T03:10:25;2.63;;;2.42;;
53062;SDS011;40529;52.172;10.548;2022-07-03T03:13:04;4.20;;;2.70;;
53062;SDS011;40529;52.172;10.548;2022-07-03T03:15:31;3.80;;;3.10;;
53062;SDS011;40529;52.172;10.548;2022-07-03T03:18:00;6.43;;;3.05;;
53062;SDS011;40529;52.172;10.548;2022-07-03T03:20:27;5.28;;;3.35;;
53062;SDS011;40529;52.172;10.548;2022-07-03T03:25:21;9.68;;;3.45;;
53062;SDS011;40529;52.172;10.548;2022-07-03T03:27:47;3.40;;;2.70;;
53062;SDS011;40529;52.172;10.548;2022-07-03T03:30:13;6.18;;;3.78;;
53062;SDS011;40529;52.172;10.548;2022-07-03T03:32:39;4.82;;;3.60;;
53062;SDS011;40529;52.172;10.548;2022-07-03T03:35:06;3.90;;;3.60;;
53062;SDS011;40529;52.172;10.548;2022-07-03T03:37:32;3.53;;;3.22;;
53062;SDS011;40529;52.172;10.548;2022-07-03T03:39:58;5.07;;;3.53;;
53062;SDS011;40529;52.172;10.548;2022-07-03T03:42:24;4.63;;;3.35;;
53062;SDS011;40529;52.172;10.548;2022-07-03T03:44:50;3.92;;;3.25;;
53062;SDS011;40529;52.172;10.548;2022-07-03T03:47:16;3.25;;;2.95;;
53062;SDS011;40529;52.172;10.548;2022-07-03T03:49:42;6.72;;;3.42;;
53062;SDS011;40529;52.172;10.548;2022-07-03T03:52:08;7.47;;;3.10;;
53062;SDS011;40529;52.172;10.548;2022-07-03T03:54:34;4.22;;;3.83;;
53062;SDS011;40529;52.172;10.548;2022-07-03T03:57:16;5.70;;;3.90;;
53062;SDS011;40529;52.172;10.548;2022-07-03T03:59:42;4.82;;;3.75;;
53062;SDS011;40529;52.172;10.548;2022-07-03T04:02:08;5.25;;;3.70;;
53062;SDS011;40529;52.172;10.548;2022-07-03T04:04:34;4.75;;;4.18;;
53062;SDS011;40529;52.172;10.548;2022-07-03T04:07:00;6.82;;;4.03;;
53062;SDS011;40529;52.172;10.548;2022-07-03T04:09:26;4.80;;;3.88;;
53062;SDS011;40529;52.172;10.548;2022-07-03T04:11:52;4.13;;;3.40;;
53062;SDS011;40529;52.172;10.548;2022-07-03T04:14:18;7.53;;;4.18;;
53062;SDS011;40529;52.172;10.548;2022-07-03T04:16:44;5.10;;;3.80;;
53062;SDS011;40529;52.172;10.548;2022-07-03T04:19:10;5.13;;;4.18;;
53062;SDS011;40529;52.172;10.548;2022-07-03T04:21:36;5.40;;;4.00;;
53062;SDS011;40529;52.172;10.548;2022-07-03T04:24:02;6.10;;;3.97;;
53062;SDS011;40529;52.172;10.548;2022-07-03T04:26:28;6.57;;;3.72;;
53062;SDS011;40529;52.172;10.548;2022-07-03T04:28:54;4.65;;;3.80;;
53062;SDS011;40529;52.172;10.548;2022-07-03T04:31:20;4.20;;;3.70;;
53062;SDS011;40529;52.172;10.548;2022-07-03T04:33:46;4.68;;;4.03;;
53062;SDS011;40529;52.172;10.548;2022-07-03T04:36:12;5.47;;;3.75;;
53062;SDS011;40529;52.172;10.548;2022-07-03T04:38:38;7.40;;;3.60;;
53062;SDS011;40529;52.172;10.548;2022-07-03T04:41:04;3.83;;;3.42;;
53062;SDS011;40529;52.172;10.548;2022-07-03T04:43:30;5.25;;;3.55;;
53062;SDS011;40529;52.172;10.548;2022-07-03T04:45:56;3.45;;;3.15;;
53062;SDS011;40529;52.172;10.548;2022-07-03T04:48:22;3.85;;;3.45;;
53062;SDS011;40529;52.172;10.548;2022-07-03T04:50:48;3.97;;;3.47;;
53062;SDS011;40529;52.172;10.548;2022-07-03T04:53:14;4.22;;;3.55;;
53062;SDS011;40529;52.172;10.548;2022-07-03T04:55:40;4.15;;;3.55;;
53062;SDS011;40529;52.172;10.548;2022-07-03T04:58:06;4.30;;;3.90;;
53062;SDS011;40529;52.172;10.548;2022-07-03T05:00:32;3.88;;;3.47;;
53062;SDS011;40529;52.172;10.548;2022-07-03T05:02:58;4.35;;;3.78;;
53062;SDS011;40529;52.172;10.548;2022-07-03T05:05:25;5.53;;;3.50;;
53062;SDS011;40529;52.172;10.548;2022-07-03T05:07:51;5.28;;;3.97;;
53062;SDS011;40529;52.172;10.548;2022-07-03T05:10:17;4.13;;;3.60;;
53062;SDS011;40529;52.172;10.548;2022-07-03T05:12:43;5.25;;;3.53;;
53062;SDS011;40529;52.172;10.548;2022-07-03T05:15:09;4.80;;;4.18;;
53062;SDS011;40529;52.172;10.548;2022-07-03T05:17:35;5.63;;;3.45;;
53062;SDS011;40529;52.172;10.548;2022-07-03T05:20:02;6.05;;;3.10;;
53062;SDS011;40529;52.172;10.548;2022-07-03T05:22:47;4.80;;;3.63;;
53062;SDS011;40529;52.172;10.548;2022-07-03T05:25:13;3.75;;;3.45;;
53062;SDS011;40529;52.172;10.548;2022-07-03T05:27:39;3.88;;;3.50;;
53062;SDS011;40529;52.172;10.548;2022-07-03T05:30:05;5.43;;;3.40;;
53062;SDS011;40529;52.172;10.548;2022-07-03T05:32:31;5.10;;;3.17;;
53062;SDS011;40529;52.172;10.548;2022-07-03T05:34:57;4.35;;;3.25;;
53062;SDS011;40529;52.172;10.548;2022-07-03T05:37:23;4.07;;;3.30;;
53062;SDS011;40529;52.172;10.548;2022-07-03T05:39:49;6.38;;;4.15;;
53062;SDS011;40529;52.172;10.548;2022-07-03T05:42:15;5.28;;;3.72;;
53062;SDS011;40529;52.172;10.548;2022-07-03T05:44:41;3.88;;;3.45;;
53062;SDS011;40529;52.172;10.548;2022-07-03T05:47:07;6.55;;;3.60;;
53062;SDS011;40529;52.172;10.548;2022-07-03T05:49:33;6.00;;;3.38;;
53062;SDS011;40529;52.172;10.548;2022-07-03T05:51:59;4.70;;;3.33;;
53062;SDS011;40529;52.172;10.548;2022-07-03T05:54:25;4.25;;;3.38;;
53062;SDS011;40529;52.172;10.548;2022-07-03T05:56:51;3.88;;;3.10;;
53062;SDS011;40529;52.172;10.548;2022-07-03T05:59:17;3.95;;;3.22;;
53062;SDS011;40529;52.172;10.548;2022-07-03T06:01:43;5.65;;;2.90;;
53062;SDS011;40529;52.172;10.548;2022-07-03T06:04:09;3.65;;;3.35;;
53062;SDS011;40529;52.172;10.548;2022-07-03T06:06:35;5.22;;;3.00;;
53062;SDS011;40529;52.172;10.548;2022-07-03T06:09:01;5.43;;;3.00;;
53062;SDS011;40529;52.172;10.548;2022-07-03T06:11:27;4.53;;;3.05;;
53062;SDS011;40529;52.172;10.548;2022-07-03T06:13:53;4.35;;;2.60;;
53062;SDS011;40529;52.172;10.548;2022-07-03T06:16:19;3.60;;;2.80;;
53062;SDS011;40529;52.172;10.548;2022-07-03T06:18:45;4.13;;;2.80;;
53062;SDS011;40529;52.172;10.548;2022-07-03T06:21:11;3.58;;;2.53;;
53062;SDS011;40529;52.172;10.548;2022-07-03T06:23:37;2.85;;;2.65;;
53062;SDS011;40529;52.172;10.548;2022-07-03T06:26:03;2.50;;;2.30;;
53062;SDS011;40529;52.172;10.548;2022-07-03T06:28:29;3.72;;;2.20;;
53062;SDS011;40529;52.172;10.548;2022-07-03T06:30:55;2.53;;;2.33;;
53062;SDS011;40529;52.172;10.548;2022-07-03T06:33:21;2.78;;;2.25;;
53062;SDS011;40529;52.172;10.548;2022-07-03T06:35:47;2.30;;;2.10;;
53062;SDS011;40529;52.172;10.548;2022-07-03T06:38:13;2.58;;;2.15;;
53062;SDS011;40529;52.172;10.548;2022-07-03T06:40:39;3.70;;;2.03;;
53062;SDS011;40529;52.172;10.548;2022-07-03T06:43:05;1.95;;;1.80;;
53062;SDS011;40529;52.172;10.548;2022-07-03T06:45:31;5.00;;;2.08;;
53062;SDS011;40529;52.172;10.548;2022-07-03T06:47:57;3.05;;;1.70;;
53062;SDS011;40529;52.172;10.548;2022-07-03T06:50:23;6.05;;;2.00;;
53062;SDS011;40529;52.172;10.548;2022-07-03T06:52:49;2.78;;;1.80;;
53062;SDS011;40529;52.172;10.548;2022-07-03T06:55:15;1.85;;;1.55;;
53062;SDS011;40529;52.172;10.548;2022-07-03T06:57:41;4.72;;;1.60;;
53062;SDS011;40529;52.172;10.548;2022-07-03T07:00:07;1.60;;;1.50;;
53062;SDS011;40529;52.172;10.548;2022-07-03T07:02:33;1.70;;;1.60;;
53062;SDS011;40529;52.172;10.548;2022-07-03T07:04:59;3.42;;;1.50;;
53062;SDS011;40529;52.172;10.548;2022-07-03T07:07:25;4.53;;;1.70;;
53062;SDS011;40529;52.172;10.548;2022-07-03T07:09:51;2.28;;;1.52;;
53062;SDS011;40529;52.172;10.548;2022-07-03T07:12:17;1.95;;;1.30;;
53062;SDS011;40529;52.172;10.548;2022-07-03T07:14:43;1.65;;;1.35;;
53062;SDS011;40529;52.172;10.548;2022-07-03T07:17:09;1.50;;;1.33;;
53062;SDS011;40529;52.172;10.548;2022-07-03T07:19:35;2.15;;;1.52;;
53062;SDS011;40529;52.172;10.548;2022-07-03T07:22:02;3.97;;;1.45;;
53062;SDS011;40529;52.172;10.548;2022-07-03T07:24:28;3.05;;;1.50;;
53062;SDS011;40529;52.172;10.548;2022-07-03T07:26:54;3.22;;;1.30;;
53062;SDS011;40529;52.172;10.548;2022-07-03T07:29:20;3.40;;;1.50;;
53062;SDS011;40529;52.172;10.548;2022-07-03T07:31:46;4.57;;;1.48;;
53062;SDS011;40529;52.172;10.548;2022-07-03T07:34:12;1.95;;;1.40;;
53062;SDS011;40529;52.172;10.548;2022-07-03T07:36:38;4.78;;;1.40;;
53062;SDS011;40529;52.172;10.548;2022-07-03T07:39:05;4.82;;;1.40;;
53062;SDS011;40529;52.172;10.548;2022-07-03T07:41:31;3.80;;;1.33;;
53062;SDS011;40529;52.172;10.548;2022-07-03T07:43:57;1.85;;;1.33;;
53062;SDS011;40529;52.172;10.548;2022-07-03T07:46:23;1.95;;;1.25;;
53062;SDS011;40529;52.172;10.548;2022-07-03T07:48:49;2.30;;;1.30;;
53062;SDS011;40529;52.172;10.548;2022-07-03T07:51:15;2.22;;;1.25;;
53062;SDS011;40529;52.172;10.548;2022-07-03T07:53:41;2.22;;;1.17;;
53062;SDS011;40529;52.172;10.548;2022-07-03T07:56:07;1.10;;;0.95;;
53062;SDS011;40529;52.172;10.548;2022-07-03T07:58:33;3.08;;;1.20;;
53062;SDS011;40529;52.172;10.548;2022-07-03T08:00:59;1.00;;;0.70;;
53062;SDS011;40529;52.172;10.548;2022-07-03T08:03:44;2.75;;;1.00;;
53062;SDS011;40529;52.172;10.548;2022-07-03T08:06:29;3.22;;;0.82;;
53062;SDS011;40529;52.172;10.548;2022-07-03T08:08:55;3.95;;;0.90;;
53062;SDS011;40529;52.172;10.548;2022-07-03T08:11:21;1.80;;;1.00;;
53062;SDS011;40529;52.172;10.548;2022-07-03T08:13:47;1.52;;;0.80;;
53062;SDS011;40529;52.172;10.548;2022-07-03T08:16:13;0.93;;;0.70;;
53062;SDS011;40529;52.172;10.548;2022-07-03T08:18:39;1.13;;;1.00;;
53062;SDS011;40529;52.172;10.548;2022-07-03T08:21:06;3.25;;;0.90;;
53062;SDS011;40529;52.172;10.548;2022-07-03T08:23:31;1.20;;;0.80;;
53062;SDS011;40529;52.172;10.548;2022-07-03T08:25:57;2.65;;;1.20;;
53062;SDS011;40529;52.172;10.548;2022-07-03T08:28:23;1.67;;;0.70;;
53062;SDS011;40529;52.172;10.548;2022-07-03T08:30:49;1.30;;;0.70;;
53062;SDS011;40529;52.172;10.548;2022-07-03T08:33:15;1.15;;;0.75;;
53062;SDS011;40529;52.172;10.548;2022-07-03T08:35:41;2.08;;;0.90;;
53062;SDS011;40529;52.172;10.548;2022-07-03T08:38:07;2.50;;;0.80;;
53062;SDS011;40529;52.172;10.548;2022-07-03T08:40:33;2.85;;;0.73;;
53062;SDS011;40529;52.172;10.548;2022-07-03T08:43:01;1.05;;;0.80;;
53062;SDS011;40529;52.172;10.548;2022-07-03T08:45:28;2.85;;;1.90;;
53062;SDS011;40529;52.172;10.548;2022-07-03T08:47:55;5.47;;;1.40;;
53062;SDS011;40529;52.172;10.548;2022-07-03T08:50:22;2.15;;;1.20;;
53062;SDS011;40529;52.172;10.548;2022-07-03T08:52:48;2.20;;;1.20;;
53062;SDS011;40529;52.172;10.548;2022-07-03T08:55:15;1.88;;;1.08;;
53062;SDS011;40529;52.172;10.548;2022-07-03T08:57:42;1.52;;;1.10;;
53062;SDS011;40529;52.172;10.548;2022-07-03T09:00:10;2.78;;;1.00;;
53062;SDS011;40529;52.172;10.548;2022-07-03T09:02:36;1.15;;;0.80;;
53062;SDS011;40529;52.172;10.548;2022-07-03T09:05:04;4.00;;;1.05;;
53062;SDS011;40529;52.172;10.548;2022-07-03T09:07:34;1.75;;;1.08;;
53062;SDS011;40529;52.172;10.548;2022-07-03T09:10:00;3.03;;;1.10;;
53062;SDS011;40529;52.172;10.548;2022-07-03T09:12:27;2.92;;;1.38;;
53062;SDS011;40529;52.172;10.548;2022-07-03T09:14:55;4.20;;;1.13;;
53062;SDS011;40529;52.172;10.548;2022-07-03T09:17:21;2.85;;;1.10;;
53062;SDS011;40529;52.172;10.548;2022-07-03T09:19:50;2.13;;;1.00;;
53062;SDS011;40529;52.172;10.548;2022-07-03T09:22:23;2.05;;;0.90;;
53062;SDS011;40529;52.172;10.548;2022-07-03T09:24:54;1.30;;;0.88;;
53062;SDS011;40529;52.172;10.548;2022-07-03T09:27:21;1.08;;;0.70;;
53062;SDS011;40529;52.172;10.548;2022-07-03T09:29:53;0.82;;;0.60;;
53062;SDS011;40529;52.172;10.548;2022-07-03T09:32:22;3.13;;;0.80;;
53062;SDS011;40529;52.172;10.548;2022-07-03T09:34:49;3.20;;;1.08;;
53062;SDS011;40529;52.172;10.548;2022-07-03T09:37:23;3.70;;;1.10;;
53062;SDS011;40529;52.172;10.548;2022-07-03T09:39:55;3.17;;;1.15;;
53062;SDS011;40529;52.172;10.548;2022-07-03T09:42:23;2.70;;;1.00;;
53062;SDS011;40529;52.172;10.548;2022-07-03T09:44:49;4.93;;;0.90;;
53062;SDS011;40529;52.172;10.548;2022-07-03T09:47:21;2.47;;;0.90;;
53062;SDS011;40529;52.172;10.548;2022-07-03T09:57:43;3.95;;;1.05;;
53062;SDS011;40529;52.172;10.548;2022-07-03T10:00:10;1.95;;;0.65;;
53062;SDS011;40529;52.172;10.548;2022-07-03T10:05:22;3.55;;;1.20;;
53062;SDS011;40529;52.172;10.548;2022-07-03T10:07:54;2.78;;;1.73;;
53062;SDS011;40529;52.172;10.548;2022-07-03T10:10:21;3.75;;;1.73;;
53062;SDS011;40529;52.172;10.548;2022-07-03T10:12:51;3.38;;;1.40;;
53062;SDS011;40529;52.172;10.548;2022-07-03T10:15:18;3.92;;;1.15;;
53062;SDS011;40529;52.172;10.548;2022-07-03T10:17:46;2.40;;;1.05;;
53062;SDS011;40529;52.172;10.548;2022-07-03T10:20:13;2.13;;;0.98;;
53062;SDS011;40529;52.172;10.548;2022-07-03T10:22:41;1.55;;;1.20;;
53062;SDS011;40529;52.172;10.548;2022-07-03T10:25:08;1.67;;;0.98;;
53062;SDS011;40529;52.172;10.548;2022-07-03T10:27:35;1.38;;;1.13;;
53062;SDS011;40529;52.172;10.548;2022-07-03T10:30:02;3.28;;;1.30;;
53062;SDS011;40529;52.172;10.548;2022-07-03T10:32:29;2.58;;;1.10;;
53062;SDS011;40529;52.172;10.548;2022-07-03T10:34:58;2.83;;;0.93;;
53062;SDS011;40529;52.172;10.548;2022-07-03T10:37:24;4.00;;;1.10;;
53062;SDS011;40529;52.172;10.548;2022-07-03T10:39:56;2.92;;;0.93;;
53062;SDS011;40529;52.172;10.548;2022-07-03T10:42:43;4.53;;;1.40;;
53062;SDS011;40529;52.172;10.548;2022-07-03T10:45:28;1.80;;;1.10;;
53062;SDS011;40529;52.172;10.548;2022-07-03T10:47:54;3.38;;;1.33;;
53062;SDS011;40529;52.172;10.548;2022-07-03T10:50:21;2.13;;;1.15;;
53062;SDS011;40529;52.172;10.548;2022-07-03T10:52:48;1.23;;;0.82;;
53062;SDS011;40529;52.172;10.548;2022-07-03T10:55:15;1.83;;;1.00;;
53062;SDS011;40529;52.172;10.548;2022-07-03T10:57:42;2.45;;;0.93;;
53062;SDS011;40529;52.172;10.548;2022-07-03T11:00:17;1.00;;;0.77;;
53062;SDS011;40529;52.172;10.548;2022-07-03T11:02:47;2.58;;;0.90;;
53062;SDS011;40529;52.172;10.548;2022-07-03T11:18:06;1.90;;;0.70;;
53062;SDS011;40529;52.172;10.548;2022-07-03T11:20:32;2.10;;;0.65;;
53062;SDS011;40529;52.172;10.548;2022-07-03T11:24:00;1.48;;;0.60;;
53062;SDS011;40529;52.172;10.548;2022-07-03T11:25:57;4.25;;;1.00;;
53062;SDS011;40529;52.172;10.548;2022-07-03T11:36:11;2.95;;;1.10;;
53062;SDS011;40529;52.172;10.548;2022-07-03T11:38:37;3.70;;;1.27;;
53062;SDS011;40529;52.172;10.548;2022-07-03T11:41:06;3.58;;;0.80;;
53062;SDS011;40529;52.172;10.548;2022-07-03T11:43:32;1.25;;;0.70;;
53062;SDS011;40529;52.172;10.548;2022-07-03T11:45:59;2.97;;;0.80;;
53062;SDS011;40529;52.172;10.548;2022-07-03T11:48:25;2.20;;;0.80;;
53062;SDS011;40529;52.172;10.548;2022-07-03T11:50:52;1.63;;;1.00;;
53062;SDS011;40529;52.172;10.548;2022-07-03T11:53:22;4.20;;;1.38;;
53062;SDS011;40529;52.172;10.548;2022-07-03T11:55:49;1.75;;;0.82;;
53062;SDS011;40529;52.172;10.548;2022-07-03T11:58:15;1.15;;;1.00;;
53062;SDS011;40529;52.172;10.548;2022-07-03T12:00:41;0.90;;;0.80;;
53062;SDS011;40529;52.172;10.548;2022-07-03T12:03:07;1.63;;;0.90;;
53062;SDS011;40529;52.172;10.548;2022-07-03T12:05:33;1.35;;;0.88;;
53062;SDS011;40529;52.172;10.548;2022-07-03T12:08:06;0.95;;;0.80;;
53062;SDS011;40529;52.172;10.548;2022-07-03T12:10:38;1.83;;;1.00;;
53062;SDS011;40529;52.172;10.548;2022-07-03T12:13:17;2.45;;;1.00;;
53062;SDS011;40529;52.172;10.548;2022-07-03T12:15:43;2.40;;;0.80;;
53062;SDS011;40529;52.172;10.548;2022-07-03T12:18:09;2.33;;;0.95;;
53062;SDS011;40529;52.172;10.548;2022-07-03T12:20:35;2.75;;;0.90;;
53062;SDS011;40529;52.172;10.548;2022-07-03T12:23:01;2.22;;;0.80;;
53062;SDS011;40529;52.172;10.548;2022-07-03T12:25:29;1.42;;;0.80;;
53062;SDS011;40529;52.172;10.548;2022-07-03T12:27:55;0.93;;;0.70;;
53062;SDS011;40529;52.172;10.548;2022-07-03T12:30:21;1.73;;;0.65;;
53062;SDS011;40529;52.172;10.548;2022-07-03T12:32:49;1.20;;;0.70;;
53062;SDS011;40529;52.172;10.548;2022-07-03T12:35:25;1.45;;;0.70;;
53062;SDS011;40529;52.172;10.548;2022-07-03T12:37:52;4.97;;;0.80;;
53062;SDS011;40529;52.172;10.548;2022-07-03T12:40:18;3.92;;;0.90;;
53062;SDS011;40529;52.172;10.548;2022-07-03T12:42:51;2.65;;;0.70;;
53062;SDS011;40529;52.172;10.548;2022-07-03T12:45:21;1.38;;;1.13;;
53062;SDS011;40529;52.172;10.548;2022-07-03T12:50:23;1.95;;;0.93;;
53062;SDS011;40529;52.172;10.548;2022-07-03T12:52:56;2.67;;;1.00;;
53062;SDS011;40529;52.172;10.548;2022-07-03T12:55:26;6.82;;;1.00;;
53062;SDS011;40529;52.172;10.548;2022-07-03T13:00:56;1.90;;;0.70;;
53062;SDS011;40529;52.172;10.548;2022-07-03T13:03:29;2.60;;;0.90;;
53062;SDS011;40529;52.172;10.548;2022-07-03T13:05:55;2.45;;;0.75;;
53062;SDS011;40529;52.172;10.548;2022-07-03T13:08:21;2.95;;;1.08;;
53062;SDS011;40529;52.172;10.548;2022-07-03T13:10:54;1.83;;;0.73;;
53062;SDS011;40529;52.172;10.548;2022-07-03T13:13:20;1.20;;;0.70;;
53062;SDS011;40529;52.172;10.548;2022-07-03T13:15:46;1.42;;;0.80;;
53062;SDS011;40529;52.172;10.548;2022-07-03T13:18:12;4.82;;;1.10;;
53062;SDS011;40529;52.172;10.548;2022-07-03T13:20:38;2.28;;;0.77;;
53062;SDS011;40529;52.172;10.548;2022-07-03T13:23:05;2.28;;;0.63;;
53062;SDS011;40529;52.172;10.548;2022-07-03T13:25:32;2.60;;;0.70;;
53062;SDS011;40529;52.172;10.548;2022-07-03T13:28:05;2.38;;;0.80;;
53062;SDS011;40529;52.172;10.548;2022-07-03T13:30:31;1.90;;;0.73;;
53062;SDS011;40529;52.172;10.548;2022-07-03T13:32:58;3.08;;;0.70;;
53062;SDS011;40529;52.172;10.548;2022-07-03T13:35:24;2.15;;;0.95;;
53062;SDS011;40529;52.172;10.548;2022-07-03T13:37:50;0.82;;;0.80;;
53062;SDS011;40529;52.172;10.548;2022-07-03T13:40:15;1.17;;;0.68;;
53062;SDS011;40529;52.172;10.548;2022-07-03T13:42:42;1.80;;;0.80;;
53062;SDS011;40529;52.172;10.548;2022-07-03T13:45:08;7.97;;;1.33;;
53062;SDS011;40529;52.172;10.548;2022-07-03T13:47:34;2.72;;;1.05;;
53062;SDS011;40529;52.172;10.548;2022-07-03T13:50:00;3.30;;;0.90;;
53062;SDS011;40529;52.172;10.548;2022-07-03T13:52:26;2.58;;;1.00;;
53062;SDS011;40529;52.172;10.548;2022-07-03T13:54:52;3.78;;;0.80;;
53062;SDS011;40529;52.172;10.548;2022-07-03T13:57:18;1.25;;;0.80;;
53062;SDS011;40529;52.172;10.548;2022-07-03T13:59:44;2.55;;;0.80;;
53062;SDS011;40529;52.172;10.548;2022-07-03T14:02:10;3.22;;;1.02;;
53062;SDS011;40529;52.172;10.548;2022-07-03T14:04:36;6.68;;;0.88;;
53062;SDS011;40529;52.172;10.548;2022-07-03T14:07:03;2.97;;;0.80;;
53062;SDS011;40529;52.172;10.548;2022-07-03T14:09:29;3.15;;;0.95;;
53062;SDS011;40529;52.172;10.548;2022-07-03T14:11:55;1.58;;;0.80;;
53062;SDS011;40529;52.172;10.548;2022-07-03T14:14:21;3.30;;;0.90;;
53062;SDS011;40529;52.172;10.548;2022-07-03T14:16:47;5.25;;;1.10;;
53062;SDS011;40529;52.172;10.548;2022-07-03T14:19:13;2.35;;;0.80;;
53062;SDS011;40529;52.172;10.548;2022-07-03T14:21:39;0.85;;;0.60;;
53062;SDS011;40529;52.172;10.548;2022-07-03T14:24:05;2.45;;;0.80;;
53062;SDS011;40529;52.172;10.548;2022-07-03T14:26:31;2.95;;;0.75;;
53062;SDS011;40529;52.172;10.548;2022-07-03T14:29:16;2.92;;;0.98;;
53062;SDS011;40529;52.172;10.548;2022-07-03T14:32:00;3.88;;;0.90;;
53062;SDS011;40529;52.172;10.548;2022-07-03T14:34:45;1.50;;;0.80;;
53062;SDS011;40529;52.172;10.548;2022-07-03T14:37:11;1.92;;;0.80;;
53062;SDS011;40529;52.172;10.548;2022-07-03T14:39:37;1.10;;;0.85;;
53062;SDS011;40529;52.172;10.548;2022-07-03T14:42:03;2.35;;;0.80;;
53062;SDS011;40529;52.172;10.548;2022-07-03T14:44:29;3.90;;;0.75;;
53062;SDS011;40529;52.172;10.548;2022-07-03T14:46:55;1.50;;;0.70;;
53062;SDS011;40529;52.172;10.548;2022-07-03T14:49:21;1.73;;;0.80;;
53062;SDS011;40529;52.172;10.548;2022-07-03T14:51:47;2.80;;;0.90;;
53062;SDS011;40529;52.172;10.548;2022-07-03T14:54:17;1.70;;;0.75;;
53062;SDS011;40529;52.172;10.548;2022-07-03T14:56:47;1.25;;;0.63;;
53062;SDS011;40529;52.172;10.548;2022-07-03T14:59:16;3.05;;;0.90;;
53062;SDS011;40529;52.172;10.548;2022-07-03T15:01:45;4.87;;;1.07;;
53062;SDS011;40529;52.172;10.548;2022-07-03T15:07:08;1.08;;;0.70;;
53062;SDS011;40529;52.172;10.548;2022-07-03T15:09:35;1.92;;;0.50;;
53062;SDS011;40529;52.172;10.548;2022-07-03T15:12:03;1.40;;;0.70;;
53062;SDS011;40529;52.172;10.548;2022-07-03T15:14:49;1.17;;;0.70;;
53062;SDS011;40529;52.172;10.548;2022-07-03T15:17:15;0.70;;;0.60;;
53062;SDS011;40529;52.172;10.548;2022-07-03T15:19:42;2.28;;;0.70;;
53062;SDS011;40529;52.172;10.548;2022-07-03T15:22:09;1.05;;;0.80;;
53062;SDS011;40529;52.172;10.548;2022-07-03T15:24:38;2.08;;;0.80;;
53062;SDS011;40529;52.172;10.548;2022-07-03T15:27:06;2.03;;;0.80;;
53062;SDS011;40529;52.172;10.548;2022-07-03T15:29:32;3.08;;;0.63;;
53062;SDS011;40529;52.172;10.548;2022-07-03T15:32:03;0.77;;;0.57;;
53062;SDS011;40529;52.172;10.548;2022-07-03T15:34:30;1.92;;;0.43;;
53062;SDS011;40529;52.172;10.548;2022-07-03T15:37:13;3.13;;;0.70;;
53062;SDS011;40529;52.172;10.548;2022-07-03T15:39:54;2.78;;;0.60;;